Time;durP1;ratioP1;P1;durP2;ratioP2;P2;SDS_P1;SDS_P2;PMS_P1;PMS_P2;Temp;Humidity;BMP_temperature;BMP_pressure;BME280_temperature;BME280_humidity;BME280_pressure;Samples;Min_cycle;Max_cycle;Signal;HPM_P1;HPM_P2
2024/01/24 00:00:16;;;;;;;0.80;0.20;;;11.30;39.30;;;;;;5085437;28;20546;-44
2024/01/24 00:02:41;;;;;;;2.50;0.90;;;12.50;40.00;;;;;;5085090;28;20283;-43
2024/01/24 00:05:08;;;;;;;1.00;0.40;;;11.30;39.70;;;;;;5083814;28;20551;-49
2024/01/24 00:07:33;;;;;;;1.50;1.40;;;11.40;39.70;;;;;;5073750;28;20239;-48
2024/01/24 00:09:59;;;;;;;0.80;0.40;;;11.30;39.90;;;;;;5073661;28;20650;-45
2024/01/24 00:12:25;;;;;;;0.90;0.22;;;11.40;39.90;;;;;;5077043;28;20736;-47
2024/01/24 00:14:51;;;;;;;13.43;0.93;;;11.40;39.80;;;;;;5086104;28;20277;-45
2024/01/24 00:17:17;;;;;;;0.80;0.20;;;11.40;40.20;;;;;;5073056;28;20185;-43
2024/01/24 00:19:42;;;;;;;0.80;0.30;;;11.40;40.20;;;;;;5073434;28;20177;-47
2024/01/24 00:22:08;;;;;;;1.13;0.70;;;11.50;40.40;;;;;;5082744;28;20204;-43
2024/01/24 00:24:34;;;;;;;1.37;1.27;;;11.50;40.40;;;;;;5079945;28;20177;-43
2024/01/24 00:26:59;;;;;;;1.20;0.40;;;11.60;40.00;;;;;;5073402;28;20610;-45
2024/01/24 00:29:25;;;;;;;0.90;0.40;;;11.60;40.00;;;;;;5080982;28;20437;-47
2024/01/24 00:31:55;;;;;;;1.50;0.83;;;11.70;40.20;;;;;;5072835;28;20212;-44
2024/01/24 00:34:21;;;;;;;0.80;0.30;;;11.70;40.40;;;;;;5072987;28;20181;-41
2024/01/24 00:36:49;;;;;;;0.90;0.50;;;11.70;40.90;;;;;;5072871;28;20763;-47
2024/01/24 00:39:14;;;;;;;2.15;0.88;;;11.60;40.70;;;;;;5075208;28;20180;-43
2024/01/24 00:41:42;;;;;;;0.80;0.30;;;11.60;40.80;;;;;;5092739;28;20209;-44
2024/01/24 00:44:07;;;;;;;0.90;0.40;;;11.60;42.20;;;;;;5074650;28;20208;-45
2024/01/24 00:46:33;;;;;;;0.80;0.30;;;11.50;42.40;;;;;;5081075;28;20184;-46
2024/01/24 00:48:59;;;;;;;0.80;0.20;;;11.50;42.60;;;;;;5089678;28;20457;-45
2024/01/24 00:51:25;;;;;;;0.80;0.20;;;11.50;42.60;;;;;;5092814;28;20203;-44
2024/01/24 00:53:53;;;;;;;0.90;0.40;;;11.40;42.30;;;;;;5093144;28;20614;-49
2024/01/24 00:56:20;;;;;;;0.80;0.20;;;11.40;43.20;;;;;;5092910;28;20168;-45
2024/01/24 00:58:46;;;;;;;0.80;0.20;;;11.30;45.00;;;;;;5092806;28;20542;-45
2024/01/24 01:01:12;;;;;;;0.80;0.20;;;11.30;44.50;;;;;;5092850;28;20577;-46
2024/01/24 01:03:38;;;;;;;0.90;0.40;;;11.30;44.10;;;;;;5092732;28;20175;-48
2024/01/24 01:06:05;;;;;;;0.80;0.30;;;11.20;45.00;;;;;;5092878;28;20172;-45
2024/01/24 01:08:31;;;;;;;0.98;0.52;;;11.20;45.30;;;;;;5091501;28;20343;-43
2024/01/24 01:10:56;;;;;;;0.80;0.20;;;11.10;46.00;;;;;;5091721;28;20686;-46
2024/01/24 01:13:23;;;;;;;0.90;0.60;;;11.10;45.70;;;;;;5092484;28;20211;-50
2024/01/24 01:15:48;;;;;;;0.80;0.20;;;11.10;47.10;;;;;;5092828;28;20192;-43
2024/01/24 01:18:14;;;;;;;0.80;0.20;;;11.00;47.10;;;;;;5092653;28;20650;-45
2024/01/24 01:20:40;;;;;;;0.80;0.27;;;11.00;46.70;;;;;;5092245;28;20183;-50
2024/01/24 01:23:05;;;;;;;0.80;0.23;;;11.00;47.10;;;;;;5092561;28;20180;-43
2024/01/24 01:25:31;;;;;;;0.80;0.20;;;11.00;47.60;;;;;;5092412;28;20180;-45
2024/01/24 01:27:57;;;;;;;1.90;0.70;;;10.90;47.80;;;;;;5092427;28;20183;-47
2024/01/24 01:30:23;;;;;;;0.90;0.50;;;10.90;48.00;;;;;;5092243;28;20560;-44
2024/01/24 01:32:50;;;;;;;0.80;0.20;;;10.90;47.80;;;;;;5092237;28;20450;-43
2024/01/24 01:35:16;;;;;;;0.80;0.30;;;10.90;47.60;;;;;;5091164;28;20172;-47
2024/01/24 01:37:42;;;;;;;0.80;0.28;;;11.00;47.60;;;;;;5092311;28;20173;-47
2024/01/24 01:40:08;;;;;;;0.80;0.20;;;11.00;47.80;;;;;;5092082;28;20725;-42
2024/01/24 01:42:34;;;;;;;0.80;0.30;;;11.00;47.80;;;;;;5091895;28;20509;-44
2024/01/24 01:45:00;;;;;;;0.80;0.27;;;11.00;48.50;;;;;;5092400;28;20268;-48
2024/01/24 01:47:25;;;;;;;0.80;0.30;;;10.90;48.50;;;;;;5092284;28;20542;-44
2024/01/24 01:49:52;;;;;;;0.90;0.50;;;10.90;48.20;;;;;;5092266;28;20264;-44
2024/01/24 01:52:19;;;;;;;0.90;0.57;;;10.90;48.50;;;;;;5091848;28;20969;-46
2024/01/24 01:54:47;;;;;;;0.90;0.40;;;10.90;49.00;;;;;;5092082;28;20525;-44
2024/01/24 01:57:14;;;;;;;0.98;0.70;;;10.80;49.50;;;;;;5092158;28;20230;-46
2024/01/24 01:59:41;;;;;;;1.30;0.77;;;10.80;49.10;;;;;;5092054;28;20177;-47
2024/01/24 02:02:09;;;;;;;0.90;0.40;;;10.90;49.10;;;;;;5091870;28;20196;-43
2024/01/24 02:04:35;;;;;;;0.90;0.40;;;11.00;48.90;;;;;;5092014;28;20173;-45
2024/01/24 02:07:00;;;;;;;0.90;0.60;;;11.00;49.50;;;;;;5092029;28;20187;-50
2024/01/24 02:09:27;;;;;;;0.90;0.50;;;11.00;49.40;;;;;;5091987;28;20639;-49
2024/01/24 02:11:52;;;;;;;1.00;0.70;;;11.00;49.20;;;;;;5091469;28;20204;-43
2024/01/24 02:14:18;;;;;;;0.90;0.60;;;11.00;48.70;;;;;;5091885;28;20730;-45
2024/01/24 02:16:44;;;;;;;0.80;0.33;;;11.10;49.10;;;;;;5092024;28;20176;-45
2024/01/24 02:19:10;;;;;;;0.80;0.30;;;11.10;49.00;;;;;;5092011;28;20572;-44
2024/01/24 02:21:37;;;;;;;0.90;0.40;;;11.10;48.70;;;;;;5093287;28;20426;-48
2024/01/24 02:24:03;;;;;;;0.80;0.30;;;11.10;48.90;;;;;;5095918;28;20176;-45
2024/01/24 02:26:29;;;;;;;0.93;0.55;;;11.10;48.70;;;;;;5095763;28;20183;-46
2024/01/24 02:28:55;;;;;;;0.93;0.63;;;11.10;48.60;;;;;;5095727;28;20255;-51
2024/01/24 02:31:21;;;;;;;1.20;0.93;;;11.20;48.40;;;;;;5095544;28;20476;-43
2024/01/24 02:33:46;;;;;;;0.80;0.30;;;11.20;49.70;;;;;;5095874;28;20306;-46
2024/01/24 02:36:14;;;;;;;0.83;0.37;;;11.10;49.50;;;;;;5095544;28;20169;-49
2024/01/24 02:38:41;;;;;;;0.80;0.20;;;11.20;49.80;;;;;;5095565;28;20172;-43
2024/01/24 02:41:07;;;;;;;0.90;0.43;;;11.20;49.80;;;;;;5095026;28;20212;-43
2024/01/24 02:43:33;;;;;;;0.90;0.40;;;11.20;49.80;;;;;;5095463;28;20293;-48
2024/01/24 02:46:00;;;;;;;1.00;0.90;;;11.20;49.90;;;;;;5095420;28;20192;-48
2024/01/24 02:48:26;;;;;;;0.90;0.60;;;11.30;49.60;;;;;;5095457;28;20179;-43
2024/01/24 02:50:52;;;;;;;1.10;0.60;;;11.40;49.30;;;;;;5095057;28;20584;-44
2024/01/24 02:53:18;;;;;;;0.90;0.40;;;11.40;49.70;;;;;;5095085;28;20708;-48
2024/01/24 02:55:44;;;;;;;0.80;0.30;;;11.40;49.70;;;;;;5095222;28;20172;-45
2024/01/24 02:58:10;;;;;;;0.90;0.40;;;11.50;49.30;;;;;;5095156;28;20761;-44
2024/01/24 03:00:36;;;;;;;0.90;0.50;;;11.50;49.30;;;;;;5094835;28;20184;-44
2024/01/24 03:03:02;;;;;;;0.90;0.50;;;11.60;49.10;;;;;;5093889;28;20180;-46
2024/01/24 03:05:28;;;;;;;0.90;0.30;;;11.60;49.00;;;;;;5095016;28;20161;-44
2024/01/24 03:07:54;;;;;;;0.97;0.50;;;11.60;49.40;;;;;;5094841;28;20253;-43
2024/01/24 03:10:22;;;;;;;0.80;0.20;;;11.60;49.50;;;;;;5094929;28;20177;-49
2024/01/24 03:12:49;;;;;;;1.67;1.00;;;11.60;49.30;;;;;;5094890;28;20534;-43
2024/01/24 03:15:15;;;;;;;0.90;0.50;;;11.60;49.50;;;;;;5094998;28;20176;-47
2024/01/24 03:17:42;;;;;;;1.30;0.50;;;11.70;49.20;;;;;;5094883;28;20176;-45
2024/01/24 03:20:10;;;;;;;1.00;0.52;;;11.80;49.10;;;;;;5094634;28;20180;-45
2024/01/24 03:22:36;;;;;;;0.80;0.30;;;11.80;49.30;;;;;;5094375;28;20224;-44
2024/01/24 03:25:02;;;;;;;1.03;0.60;;;11.80;49.10;;;;;;5094905;28;20634;-47
2024/01/24 03:27:28;;;;;;;0.85;0.32;;;11.80;48.90;;;;;;5094617;28;20520;-49
2024/01/24 03:29:53;;;;;;;0.90;0.40;;;11.80;48.60;;;;;;5094746;28;20295;-42
2024/01/24 03:32:19;;;;;;;0.80;0.33;;;11.80;48.40;;;;;;5093966;28;20204;-43
2024/01/24 03:34:55;;;;;;;1.10;0.53;;;11.90;49.10;;;;;;5094211;28;20172;-46
2024/01/24 03:37:21;;;;;;;0.80;0.30;;;11.90;49.70;;;;;;5094324;28;20509;-43
2024/01/24 03:39:47;;;;;;;0.90;0.30;;;11.90;49.50;;;;;;5094205;28;20314;-45
2024/01/24 03:42:13;;;;;;;3.47;0.63;;;12.00;49.10;;;;;;5094139;28;20207;-43
2024/01/24 03:44:39;;;;;;;1.00;0.40;;;12.00;49.10;;;;;;5094357;28;20406;-49
2024/01/24 03:47:05;;;;;;;0.90;0.47;;;12.10;48.60;;;;;;5094281;28;20414;-49
2024/01/24 03:49:31;;;;;;;0.90;0.30;;;12.10;49.00;;;;;;5094193;28;20184;-45
2024/01/24 03:51:57;;;;;;;0.90;0.40;;;12.10;48.80;;;;;;5093814;28;20279;-44
2024/01/24 03:54:22;;;;;;;0.90;0.40;;;12.10;49.70;;;;;;5093994;28;20737;-49
2024/01/24 03:56:49;;;;;;;0.80;0.30;;;12.10;49.40;;;;;;5094095;28;20169;-50
2024/01/24 03:59:15;;;;;;;1.30;1.02;;;12.10;49.20;;;;;;5093977;28;20165;-43
2024/01/24 04:01:40;;;;;;;0.80;0.20;;;12.10;49.90;;;;;;5093727;28;20608;-46
2024/01/24 04:04:07;;;;;;;0.80;0.30;;;12.10;51.00;;;;;;5093843;28;20414;-50
2024/01/24 04:06:33;;;;;;;1.88;0.50;;;12.20;51.20;;;;;;5093775;28;20221;-44
2024/01/24 04:08:59;;;;;;;1.00;0.57;;;12.30;50.10;;;;;;5093843;28;20247;-46
2024/01/24 04:11:24;;;;;;;0.80;0.30;;;12.40;50.30;;;;;;5093621;28;20269;-48
2024/01/24 04:13:53;;;;;;;0.80;0.30;;;12.40;50.30;;;;;;5093833;28;20662;-45
2024/01/24 04:16:19;;;;;;;0.90;0.30;;;12.50;50.20;;;;;;5093718;28;20511;-43
2024/01/24 04:18:46;;;;;;;2.85;1.27;;;12.50;50.50;;;;;;5093619;28;20184;-45
2024/01/24 04:21:12;;;;;;;1.00;0.50;;;12.50;50.90;;;;;;5093212;28;20199;-47
2024/01/24 04:23:37;;;;;;;2.70;1.63;;;12.50;50.90;;;;;;5093517;28;20267;-44
2024/01/24 04:26:04;;;;;;;1.20;0.70;;;12.70;50.80;;;;;;5093583;28;20182;-47
2024/01/24 04:28:31;;;;;;;0.90;0.40;;;12.70;50.10;;;;;;5093334;28;20212;-44
2024/01/24 04:30:57;;;;;;;1.20;0.68;;;12.80;50.10;;;;;;5093064;28;20203;-46
2024/01/24 04:33:23;;;;;;;1.00;0.50;;;12.90;50.10;;;;;;5093154;28;20199;-47
2024/01/24 04:35:48;;;;;;;0.90;0.43;;;13.10;49.10;;;;;;5093327;28;20492;-43
2024/01/24 04:38:14;;;;;;;1.33;1.07;;;13.20;48.60;;;;;;5093396;28;20172;-44
2024/01/24 04:40:40;;;;;;;0.90;0.50;;;13.30;48.60;;;;;;5092870;28;20185;-48
2024/01/24 04:43:07;;;;;;;1.00;0.60;;;13.10;48.80;;;;;;5093251;28;20180;-45
2024/01/24 04:45:33;;;;;;;0.90;0.50;;;13.10;49.30;;;;;;5092051;28;20207;-46
2024/01/24 04:47:59;;;;;;;0.90;0.37;;;13.20;48.90;;;;;;5092951;28;20219;-46
2024/01/24 04:50:25;;;;;;;0.80;0.30;;;13.30;48.50;;;;;;5093217;28;20188;-42
2024/01/24 04:52:50;;;;;;;1.20;0.97;;;13.40;48.20;;;;;;5093005;28;21085;-47
2024/01/24 04:55:16;;;;;;;0.90;0.40;;;13.40;47.90;;;;;;5093076;28;20765;-49
2024/01/24 04:57:42;;;;;;;1.00;0.40;;;13.40;48.00;;;;;;5092985;28;20203;-43
2024/01/24 05:00:09;;;;;;;1.37;1.27;;;13.40;47.70;;;;;;5092793;28;20179;-48
2024/01/24 05:02:37;;;;;;;0.90;0.35;;;13.40;47.80;;;;;;5092403;28;20643;-42
2024/01/24 05:05:06;;;;;;;12.68;1.40;;;13.50;47.60;;;;;;5092941;28;20286;-46
2024/01/24 05:07:35;;;;;;;0.90;0.40;;;13.50;47.50;;;;;;5091468;28;20180;-47
2024/01/24 05:10:03;;;;;;;1.00;0.70;;;13.40;47.70;;;;;;5092714;28;20302;-45
2024/01/24 05:12:29;;;;;;;0.80;0.30;;;13.50;47.80;;;;;;5092358;28;20203;-47
2024/01/24 05:14:56;;;;;;;1.00;0.75;;;13.40;48.10;;;;;;5092516;28;20173;-51
2024/01/24 05:17:22;;;;;;;1.33;0.65;;;13.30;48.50;;;;;;5092388;28;20939;-42
2024/01/24 05:19:48;;;;;;;6.72;1.75;;;13.40;48.30;;;;;;5092577;28;20164;-47
2024/01/24 05:22:15;;;;;;;1.88;0.73;;;13.40;48.20;;;;;;5092162;28;20246;-47
2024/01/24 05:24:45;;;;;;;1.52;0.60;;;13.50;48.20;;;;;;5092478;28;20192;-48
2024/01/24 05:27:11;;;;;;;0.90;0.50;;;13.60;47.80;;;;;;5092327;28;20176;-44
2024/01/24 05:29:36;;;;;;;0.80;0.20;;;13.50;48.20;;;;;;5092343;28;20181;-44
2024/01/24 05:32:02;;;;;;;6.37;0.67;;;13.40;48.10;;;;;;5092160;28;20778;-47
2024/01/24 05:34:28;;;;;;;0.90;0.40;;;13.50;48.00;;;;;;5092267;28;20654;-46
2024/01/24 05:36:54;;;;;;;1.02;0.55;;;13.70;47.50;;;;;;5092240;28;20493;-45
2024/01/24 05:39:20;;;;;;;0.90;0.30;;;13.70;47.30;;;;;;5092312;28;20263;-50
2024/01/24 05:41:45;;;;;;;1.10;0.40;;;13.70;47.60;;;;;;5091909;28;20272;-42
2024/01/24 05:44:11;;;;;;;0.90;0.30;;;13.60;47.70;;;;;;5092090;28;20176;-44
2024/01/24 05:46:37;;;;;;;1.30;0.60;;;13.70;47.80;;;;;;5092355;28;20233;-49
2024/01/24 05:49:03;;;;;;;0.90;0.40;;;13.60;48.10;;;;;;5092364;28;20179;-43
2024/01/24 05:51:28;;;;;;;0.90;0.33;;;13.60;48.20;;;;;;5091911;28;20557;-45
2024/01/24 05:53:54;;;;;;;1.10;0.80;;;13.60;48.20;;;;;;5091995;28;20467;-47
2024/01/24 05:56:20;;;;;;;0.93;0.40;;;13.70;47.90;;;;;;5094812;28;20175;-47
2024/01/24 05:58:46;;;;;;;1.00;0.50;;;13.80;47.50;;;;;;5098799;28;20641;-44
2024/01/24 06:01:12;;;;;;;1.00;0.50;;;13.90;47.40;;;;;;5098371;28;20266;-44
2024/01/24 06:03:40;;;;;;;1.10;0.63;;;14.00;47.30;;;;;;5098677;28;20275;-47
2024/01/24 06:06:06;;;;;;;0.93;0.45;;;14.00;47.20;;;;;;5098868;28;20410;-45
2024/01/24 06:08:32;;;;;;;0.90;0.30;;;14.00;47.20;;;;;;5098690;28;20186;-45
2024/01/24 06:10:58;;;;;;;1.67;0.40;;;14.00;47.20;;;;;;5098358;28;20485;-46
2024/01/24 06:13:24;;;;;;;1.10;0.68;;;14.00;47.20;;;;;;5098469;28;20238;-45
2024/01/24 06:15:51;;;;;;;1.60;0.80;;;14.10;47.10;;;;;;5098845;28;20526;-46
2024/01/24 06:18:18;;;;;;;1.10;0.50;;;14.10;47.00;;;;;;5098816;28;20410;-48
2024/01/24 06:20:45;;;;;;;1.10;0.90;;;14.10;47.10;;;;;;5098484;28;20200;-45
2024/01/24 06:23:11;;;;;;;1.20;0.77;;;14.20;47.20;;;;;;5098485;28;20176;-43
2024/01/24 06:25:37;;;;;;;0.82;0.20;;;14.20;47.00;;;;;;5098593;28;20278;-50
2024/01/24 06:28:03;;;;;;;1.23;0.50;;;14.20;47.10;;;;;;5098437;28;20751;-44
2024/01/24 06:30:28;;;;;;;0.80;0.20;;;14.20;47.10;;;;;;5098525;28;20168;-47
2024/01/24 06:32:54;;;;;;;0.90;0.30;;;14.20;47.50;;;;;;5098237;28;20473;-45
2024/01/24 06:35:20;;;;;;;0.97;0.50;;;14.20;47.60;;;;;;5098440;28;20696;-45
2024/01/24 06:37:47;;;;;;;1.10;0.77;;;14.20;47.40;;;;;;5098450;28;20169;-43
2024/01/24 06:40:14;;;;;;;1.00;0.60;;;14.30;47.50;;;;;;5098128;28;20192;-49
2024/01/24 06:42:40;;;;;;;0.90;0.40;;;14.30;47.30;;;;;;5098080;28;20206;-44
2024/01/24 06:45:07;;;;;;;1.13;0.60;;;14.30;47.60;;;;;;5098501;28;20176;-44
2024/01/24 06:47:34;;;;;;;1.00;0.57;;;14.30;47.60;;;;;;5098466;28;20513;-49
2024/01/24 06:50:00;;;;;;;1.20;0.57;;;14.40;47.30;;;;;;5098431;28;20184;-49
2024/01/24 06:52:25;;;;;;;1.00;0.67;;;14.40;47.40;;;;;;5097903;28;20562;-46
2024/01/24 06:54:51;;;;;;;1.00;0.50;;;14.40;47.60;;;;;;5098207;28;20182;-44
2024/01/24 06:57:17;;;;;;;1.00;0.47;;;14.50;47.40;;;;;;5098149;28;20398;-51
2024/01/24 06:59:43;;;;;;;0.90;0.20;;;14.60;47.10;;;;;;5098344;28;20406;-46
2024/01/24 07:02:09;;;;;;;0.90;0.40;;;14.60;47.10;;;;;;5098184;28;20200;-45
2024/01/24 07:04:35;;;;;;;2.95;0.75;;;14.50;47.60;;;;;;5098357;28;20406;-49
2024/01/24 07:07:01;;;;;;;0.80;0.20;;;14.40;47.70;;;;;;5096578;28;20619;-44
2024/01/24 07:09:26;;;;;;;0.90;0.30;;;14.50;47.60;;;;;;5094151;28;20177;-45
2024/01/24 07:11:52;;;;;;;0.90;0.33;;;14.60;47.30;;;;;;5094491;28;20196;-48
2024/01/24 07:14:18;;;;;;;0.90;0.40;;;14.50;47.40;;;;;;5094887;28;20479;-44
2024/01/24 07:16:44;;;;;;;1.50;0.70;;;14.50;48.10;;;;;;5094801;28;20168;-43
2024/01/24 07:19:10;;;;;;;1.23;0.80;;;14.50;48.00;;;;;;5094756;28;20175;-45
2024/01/24 07:21:36;;;;;;;0.90;0.30;;;14.50;48.00;;;;;;5094133;28;20196;-51
2024/01/24 07:24:02;;;;;;;1.40;0.83;;;14.50;48.20;;;;;;5086445;28;20306;-44
2024/01/24 07:26:28;;;;;;;0.90;0.30;;;14.50;48.20;;;;;;5074316;28;20414;-48
2024/01/24 07:28:54;;;;;;;0.90;0.40;;;14.60;47.80;;;;;;5074231;28;20173;-43
2024/01/24 07:31:20;;;;;;;1.03;0.43;;;14.60;47.90;;;;;;5074231;28;20427;-45
2024/01/24 07:33:46;;;;;;;1.00;0.43;;;14.60;47.60;;;;;;5074198;28;20972;-48
2024/01/24 07:36:11;;;;;;;0.90;0.50;;;14.60;48.00;;;;;;5074321;28;20198;-45
2024/01/24 07:38:37;;;;;;;0.80;0.20;;;14.60;48.30;;;;;;5074214;28;20173;-45
2024/01/24 07:41:04;;;;;;;0.90;0.30;;;14.60;48.70;;;;;;5073754;28;20209;-47
2024/01/24 07:43:30;;;;;;;0.90;0.40;;;14.70;48.20;;;;;;5074110;28;20439;-45
2024/01/24 07:45:56;;;;;;;0.90;0.37;;;14.80;47.60;;;;;;5074129;28;20201;-51
2024/01/24 07:48:22;;;;;;;0.90;0.40;;;14.80;48.30;;;;;;5074003;28;20407;-45
2024/01/24 07:50:49;;;;;;;0.90;0.30;;;14.60;49.80;;;;;;5073799;28;20751;-52
2024/01/24 07:53:14;;;;;;;1.15;0.73;;;14.70;50.30;;;;;;5073894;28;20275;-43
2024/01/24 07:55:40;;;;;;;0.90;0.30;;;14.80;49.40;;;;;;5073827;28;20205;-45
2024/01/24 07:58:07;;;;;;;2.03;0.70;;;14.80;48.80;;;;;;5073943;28;20226;-49
2024/01/24 08:00:33;;;;;;;0.88;0.30;;;14.70;48.80;;;;;;5073493;28;20177;-45
2024/01/24 08:02:58;;;;;;;0.90;0.30;;;14.70;48.30;;;;;;5073732;28;20204;-44
2024/01/24 08:05:24;;;;;;;0.90;0.50;;;14.70;48.10;;;;;;5073628;28;20212;-50
2024/01/24 08:07:51;;;;;;;0.90;0.47;;;14.70;48.20;;;;;;5073586;28;20185;-46
2024/01/24 08:10:16;;;;;;;1.00;0.40;;;14.70;48.60;;;;;;5073556;28;20191;-44
2024/01/24 08:12:42;;;;;;;0.90;0.37;;;14.70;48.50;;;;;;5073178;28;20291;-49
2024/01/24 08:15:08;;;;;;;7.33;0.93;;;14.70;48.60;;;;;;5073597;28;20207;-46
2024/01/24 08:17:36;;;;;;;1.80;0.63;;;14.80;48.80;;;;;;5073332;28;20909;-46
2024/01/24 08:20:08;;;;;;;4.43;0.70;;;14.70;49.40;;;;;;5073213;28;20411;-47
2024/01/24 08:22:35;;;;;;;0.90;0.30;;;14.60;49.70;;;;;;5080375;22;20331;-52
2024/01/24 08:25:01;;;;;;;1.00;0.50;;;14.70;49.60;;;;;;5053145;28;20201;-56
2024/01/24 08:27:27;;;;;;;1.00;0.47;;;14.80;49.90;;;;;;5052985;28;20173;-50
2024/01/24 08:29:53;;;;;;;1.00;0.60;;;14.80;49.80;;;;;;5053109;28;20177;-54
2024/01/24 08:32:19;;;;;;;1.10;0.70;;;15.00;49.50;;;;;;5052633;28;20301;-51
2024/01/24 08:34:45;;;;;;;1.00;0.50;;;15.10;48.90;;;;;;5052979;28;20257;-56
2024/01/24 08:37:12;;;;;;;1.00;0.50;;;15.00;48.40;;;;;;5052903;28;20408;-52
2024/01/24 08:39:39;;;;;;;1.00;0.55;;;14.90;48.90;;;;;;5052776;28;20412;-59
2024/01/24 08:42:06;;;;;;;0.98;0.47;;;14.90;49.60;;;;;;5052514;28;20208;-54
2024/01/24 08:44:31;;;;;;;1.20;0.73;;;14.90;51.30;;;;;;5052797;28;20203;-51
2024/01/24 08:46:57;;;;;;;1.00;0.50;;;14.80;52.60;;;;;;5052899;28;20186;-53
2024/01/24 08:49:23;;;;;;;0.90;0.37;;;14.50;53.60;;;;;;5052596;28;20673;-52
2024/01/24 08:51:48;;;;;;;0.90;0.40;;;14.30;53.90;;;;;;5052323;28;20204;-52
2024/01/24 08:54:14;;;;;;;1.00;0.67;;;14.30;54.60;;;;;;5052464;28;20251;-57
2024/01/24 08:56:41;;;;;;;1.20;0.70;;;14.40;54.70;;;;;;5052569;28;20180;-52
2024/01/24 08:59:07;;;;;;;1.30;0.60;;;14.40;53.90;;;;;;5052435;28;20181;-51
2024/01/24 09:01:32;;;;;;;0.90;0.30;;;14.70;53.50;;;;;;5052369;28;20198;-55
2024/01/24 09:03:58;;;;;;;1.10;0.53;;;15.40;52.30;;;;;;5052420;28;20531;-56
2024/01/24 09:06:25;;;;;;;1.47;0.50;;;15.70;50.70;;;;;;5052384;28;20174;-52
2024/01/24 09:08:54;;;;;;;0.98;0.60;;;15.80;49.70;;;;;;5052286;28;20170;-53
2024/01/24 09:11:21;;;;;;;0.85;0.22;;;15.60;48.70;;;;;;5052107;28;20284;-54
2024/01/24 09:13:47;;;;;;;1.25;0.55;;;15.50;48.60;;;;;;5052209;28;20217;-58
2024/01/24 09:16:14;;;;;;;1.10;0.65;;;16.10;46.30;;;;;;5052199;28;20181;-59
2024/01/24 09:18:40;;;;;;;1.00;0.55;;;16.80;44.40;;;;;;5052287;28;20166;-53
2024/01/24 09:21:06;;;;;;;1.05;0.57;;;17.50;42.90;;;;;;5060007;28;20645;-54
2024/01/24 09:23:32;;;;;;;1.00;0.50;;;17.90;41.80;;;;;;5055719;28;20200;-55
2024/01/24 09:25:58;;;;;;;1.10;0.60;;;18.10;39.90;;;;;;5056726;28;20180;-53
2024/01/24 09:28:23;;;;;;;1.00;0.40;;;18.10;39.50;;;;;;5052010;28;20590;-57
2024/01/24 09:30:49;;;;;;;1.80;0.50;;;17.80;40.10;;;;;;5051355;28;20177;-52
2024/01/24 09:33:16;;;;;;;0.90;0.30;;;17.40;39.70;;;;;;5051846;28;20237;-55
2024/01/24 09:35:44;;;;;;;1.00;0.40;;;17.10;40.60;;;;;;5051985;28;20535;-55
2024/01/24 09:38:10;;;;;;;0.90;0.30;;;17.00;42.00;;;;;;5051956;28;20185;-51
2024/01/24 09:40:37;;;;;;;0.90;0.30;;;17.10;41.00;;;;;;5051750;28;20170;-58
2024/01/24 09:43:03;;;;;;;0.90;0.32;;;17.30;40.20;;;;;;5051792;28;20208;-58
2024/01/24 09:45:30;;;;;;;0.90;0.30;;;17.30;40.60;;;;;;5051694;28;20182;-52
2024/01/24 09:47:58;;;;;;;1.00;0.38;;;17.20;39.30;;;;;;5051783;28;20416;-53
2024/01/24 09:50:24;;;;;;;1.65;0.85;;;17.00;39.60;;;;;;5051630;28;20193;-57
2024/01/24 09:52:51;;;;;;;1.15;0.77;;;17.10;39.60;;;;;;5051694;28;20216;-58
2024/01/24 09:55:18;;;;;;;1.65;0.90;;;17.20;39.80;;;;;;5051630;28;20178;-53
2024/01/24 09:57:45;;;;;;;0.90;0.30;;;17.30;39.70;;;;;;5051856;28;20252;-53
2024/01/24 10:00:14;;;;;;;1.00;0.50;;;17.40;39.10;;;;;;5051685;28;20174;-57
2024/01/24 10:02:45;;;;;;;1.48;0.75;;;17.70;39.60;;;;;;5051464;28;20251;-55
2024/01/24 10:05:14;;;;;;;1.30;0.80;;;18.30;38.30;;;;;;5051536;28;20197;-52
2024/01/24 10:07:41;;;;;;;0.98;0.40;;;18.90;37.10;;;;;;5051869;28;20184;-57
2024/01/24 10:10:09;;;;;;;1.00;0.40;;;18.80;36.70;;;;;;5051616;28;20182;-56
2024/01/24 10:12:35;;;;;;;1.00;0.57;;;18.40;36.90;;;;;;5051332;28;20201;-51
2024/01/24 10:15:02;;;;;;;1.05;0.65;;;18.00;37.70;;;;;;5051664;28;20173;-54
2024/01/24 10:17:28;;;;;;;1.00;0.40;;;17.90;37.80;;;;;;5051462;28;20268;-57
2024/01/24 10:19:54;;;;;;;1.00;0.40;;;17.80;37.70;;;;;;5051530;28;20174;-52
2024/01/24 10:22:22;;;;;;;1.00;0.40;;;17.70;37.90;;;;;;5051161;28;20644;-58
2024/01/24 10:24:49;;;;;;;1.00;0.40;;;17.50;36.60;;;;;;5051332;28;20809;-57
2024/01/24 10:27:14;;;;;;;1.45;0.70;;;17.20;37.90;;;;;;5051345;28;20239;-52
2024/01/24 10:29:43;;;;;;;1.40;0.90;;;17.40;37.90;;;;;;5051451;28;20257;-54
2024/01/24 10:32:09;;;;;;;1.08;0.30;;;17.40;36.20;;;;;;5050865;28;20760;-58
2024/01/24 10:34:38;;;;;;;0.90;0.30;;;17.00;37.50;;;;;;5051565;28;20218;-52
2024/01/24 10:37:07;;;;;;;1.10;0.55;;;17.00;37.90;;;;;;5051418;28;20543;-58
2024/01/24 10:39:35;;;;;;;1.00;0.45;;;17.00;38.00;;;;;;5051287;28;20513;-52
2024/01/24 10:42:08;;;;;;;0.90;0.40;;;16.80;38.70;;;;;;5051128;28;20205;-54
2024/01/24 10:44:35;;;;;;;0.90;0.30;;;16.90;39.20;;;;;;5054527;28;20209;-53
2024/01/24 10:47:04;;;;;;;1.42;1.05;;;16.70;42.80;;;;;;5055042;28;20190;-50
2024/01/24 10:49:31;;;;;;;0.90;0.40;;;16.50;45.10;;;;;;5054992;28;20244;-57
2024/01/24 10:51:57;;;;;;;1.00;0.50;;;15.90;47.30;;;;;;5061343;28;20696;-58
2024/01/24 10:54:23;;;;;;;1.20;0.80;;;15.40;47.80;;;;;;5055979;28;20204;-54
2024/01/24 10:56:50;;;;;;;1.10;0.70;;;14.80;48.30;;;;;;5054889;28;20174;-54
2024/01/24 10:59:17;;;;;;;2.17;0.65;;;14.60;48.50;;;;;;5054659;28;20170;-51
2024/01/24 11:01:44;;;;;;;2.00;1.35;;;14.30;48.20;;;;;;5054529;28;20185;-53
2024/01/24 11:04:13;;;;;;;1.05;0.65;;;14.10;48.50;;;;;;5054640;28;20174;-56
2024/01/24 11:06:47;;;;;;;2.47;1.13;;;14.00;48.10;;;;;;5054663;28;20227;-52
2024/01/24 11:09:24;;;;;;;1.63;0.95;;;13.80;48.20;;;;;;5054659;28;20192;-54
2024/01/24 11:11:53;;;;;;;1.50;1.20;;;13.50;49.60;;;;;;5054468;28;20276;-56
2024/01/24 11:14:29;;;;;;;10.23;1.58;;;13.70;49.20;;;;;;5054413;28;20539;-52
2024/01/24 11:16:57;;;;;;;2.60;1.40;;;13.70;48.20;;;;;;5054624;28;20181;-59
2024/01/24 11:19:24;;;;;;;1.35;1.05;;;13.90;48.20;;;;;;5054444;28;20182;-57
2024/01/24 11:21:52;;;;;;;1.00;0.50;;;14.50;47.40;;;;;;5054023;28;20209;-51
2024/01/24 11:24:42;;;;;;;2.08;1.88;;;15.20;46.60;;;;;;5054161;28;20232;-54
2024/01/24 11:27:27;;;;;;;1.73;0.75;;;15.30;43.10;;;;;;5048074;28;20182;-58
2024/01/24 11:29:54;;;;;;;2.35;2.15;;;15.10;44.20;;;;;;5054324;28;20189;-52
2024/01/24 11:32:48;;;;;;;1.65;0.85;;;14.90;43.30;;;;;;5053854;28;20201;-57
2024/01/24 11:35:35;;;;;;;3.17;0.88;;;14.90;43.80;;;;;;5054220;28;20178;-58
2024/01/24 11:38:28;;;;;;;1.08;0.68;;;14.80;43.40;;;;;;5054030;28;20633;-56
2024/01/24 11:41:21;;;;;;;1.00;0.45;;;14.70;43.40;;;;;;5053613;28;20216;-52
2024/01/24 11:43:48;;;;;;;2.38;0.70;;;14.50;44.10;;;;;;5054112;28;20208;-51
2024/01/24 11:46:14;;;;;;;1.53;1.00;;;14.60;43.90;;;;;;5053845;28;20264;-56
2024/01/24 11:48:40;;;;;;;11.65;2.47;;;14.60;42.90;;;;;;5053994;28;20466;-55
2024/01/24 11:51:06;;;;;;;1.30;0.90;;;14.50;43.60;;;;;;5053671;28;20205;-53
2024/01/24 11:53:32;;;;;;;1.00;0.50;;;14.60;43.60;;;;;;5053078;28;20448;-54
2024/01/24 11:56:00;;;;;;;4.43;0.50;;;14.60;43.20;;;;;;5053854;28;20187;-59
2024/01/24 11:58:27;;;;;;;1.17;1.02;;;14.60;43.20;;;;;;5053591;28;20499;-53
2024/01/24 12:01:03;;;;;;;1.55;0.77;;;14.60;43.60;;;;;;5053512;28;20170;-51
2024/01/24 12:03:30;;;;;;;1.00;0.60;;;14.80;44.10;;;;;;5053570;28;20181;-56
2024/01/24 12:05:56;;;;;;;2.28;1.20;;;15.10;41.80;;;;;;5053601;28;20228;-53
2024/01/24 12:08:22;;;;;;;3.13;1.38;;;15.50;42.10;;;;;;5053761;28;20316;-51
2024/01/24 12:10:48;;;;;;;1.20;0.93;;;16.10;40.20;;;;;;5053486;28;20264;-57
2024/01/24 12:13:14;;;;;;;1.97;0.90;;;16.80;39.40;;;;;;5053505;28;20460;-52
2024/01/24 12:15:44;;;;;;;2.22;0.75;;;16.90;37.30;;;;;;5053386;28;20166;-53
2024/01/24 12:18:12;;;;;;;2.55;1.70;;;16.50;37.40;;;;;;5053285;28;20170;-57
2024/01/24 12:20:38;;;;;;;1.10;0.52;;;16.00;38.80;;;;;;5053131;28;20178;-50
2024/01/24 12:23:07;;;;;;;3.45;0.75;;;15.80;38.70;;;;;;5053157;28;20704;-50
2024/01/24 12:25:33;;;;;;;1.30;0.63;;;15.70;38.80;;;;;;5053430;28;20261;-51
2024/01/24 12:28:00;;;;;;;3.57;0.50;;;15.50;39.90;;;;;;5053208;28;20292;-49
2024/01/24 12:30:27;;;;;;;2.05;0.70;;;15.70;39.10;;;;;;5053142;28;20858;-53
2024/01/24 12:32:56;;;;;;;1.38;1.05;;;15.90;39.20;;;;;;5052807;28;20276;-49
2024/01/24 12:35:24;;;;;;;2.10;1.02;;;16.10;38.70;;;;;;5053139;28;20174;-47
2024/01/24 12:37:51;;;;;;;2.95;0.70;;;16.20;37.90;;;;;;5052832;28;20177;-55
2024/01/24 12:40:17;;;;;;;0.90;0.30;;;15.90;37.80;;;;;;5052920;28;20232;-55
2024/01/24 12:42:43;;;;;;;1.42;0.93;;;15.50;38.30;;;;;;5057292;28;20243;-48